Time;durP1;ratioP1;P1;durP2;ratioP2;P2;SDS_P1;SDS_P2;PMS_P1;PMS_P2;Temp;Humidity;BMP_temperature;BMP_pressure;BME280_temperature;BME280_humidity;BME280_pressure;Samples;Min_cycle;Max_cycle;Signal;HPM_P1;HPM_P2
2021/08/25 00:01:33;;;;;;;1999.90;999.90;;;14.50;97.80;;;;;;4997344;28;20470;-87
2021/08/25 00:03:59;;;;;;;1999.90;999.90;;;14.60;97.30;;;;;;4996804;28;20023;-86
2021/08/25 00:06:25;;;;;;;1999.90;999.90;;;14.50;97.00;;;;;;4997211;28;20030;-88
2021/08/25 00:08:51;;;;;;;1999.90;999.90;;;14.60;97.30;;;;;;4997053;28;20034;-87
2021/08/25 00:11:17;;;;;;;1999.90;999.90;;;14.50;97.30;;;;;;4997166;28;20101;-88
2021/08/25 00:13:43;;;;;;;1999.90;999.90;;;14.50;97.00;;;;;;4996603;28;20026;-89
2021/08/25 00:16:10;;;;;;;1999.90;999.90;;;14.40;97.10;;;;;;4997343;28;20093;-88
2021/08/25 00:18:35;;;;;;;1999.90;999.90;;;14.40;96.90;;;;;;4995976;28;20030;-89
2021/08/25 00:21:01;;;;;;;1999.90;999.90;;;14.40;96.20;;;;;;4996639;28;20381;-88
2021/08/25 00:23:27;;;;;;;1999.90;999.90;;;14.30;95.80;;;;;;4996460;28;20082;-86
2021/08/25 00:25:58;;;;;;;1999.90;999.90;;;14.30;95.40;;;;;;4996753;28;20056;-85
2021/08/25 00:28:24;;;;;;;1999.90;999.90;;;14.30;94.90;;;;;;4997010;28;20026;-86
2021/08/25 00:30:50;;;;;;;1999.90;999.90;;;14.40;94.00;;;;;;4995934;28;20026;-88
2021/08/25 00:33:15;;;;;;;1999.90;999.90;;;14.40;93.60;;;;;;4996221;28;20057;-90
2021/08/25 00:35:41;;;;;;;1999.90;999.90;;;14.30;92.30;;;;;;4996203;28;20089;-88
2021/08/25 00:38:07;;;;;;;1999.90;999.90;;;14.40;92.50;;;;;;4996614;28;20025;-88
2021/08/25 00:40:32;;;;;;;1999.90;999.90;;;14.30;91.50;;;;;;4995986;28;20429;-88
2021/08/25 00:43:10;;;;;;;1999.90;999.90;;;14.30;90.80;;;;;;4996875;28;20045;-91
2021/08/25 00:45:43;;;;;;;1999.90;999.90;;;14.40;90.40;;;;;;4996797;28;20202;-88
2021/08/25 00:48:12;;;;;;;1999.90;999.90;;;14.40;89.80;;;;;;4996743;28;20121;-87
2021/08/25 00:50:38;;;;;;;1999.90;999.90;;;14.40;89.70;;;;;;4996425;28;20030;-87
2021/08/25 00:53:06;;;;;;;1999.90;999.90;;;14.40;90.00;;;;;;4995920;28;20054;-88
2021/08/25 00:55:39;;;;;;;1999.90;999.90;;;14.30;90.00;;;;;;4996094;28;20089;-88
2021/08/25 00:58:07;;;;;;;1999.90;999.90;;;14.30;90.20;;;;;;4996109;28;20500;-87
2021/08/25 01:00:35;;;;;;;1999.90;999.90;;;14.30;90.40;;;;;;4996574;28;20466;-88
2021/08/25 01:03:16;;;;;;;1999.90;999.90;;;14.30;90.40;;;;;;4996157;28;20098;-89
2021/08/25 01:05:43;;;;;;;1999.90;999.90;;;14.30;90.30;;;;;;4996188;28;20030;-88
2021/08/25 01:08:13;;;;;;;1999.90;999.90;;;14.30;90.60;;;;;;4995713;28;20482;-87
2021/08/25 01:10:38;;;;;;;1999.90;999.90;;;14.30;90.40;;;;;;4996126;28;20037;-86
2021/08/25 01:13:07;;;;;;;1999.90;999.90;;;14.20;90.20;;;;;;4996062;28;20018;-87
2021/08/25 01:15:35;;;;;;;1999.90;999.90;;;14.20;90.30;;;;;;4995736;28;20041;-88
2021/08/25 01:18:02;;;;;;;1999.90;999.90;;;14.20;90.10;;;;;;4995912;28;20089;-88
2021/08/25 01:20:29;;;;;;;1999.90;999.90;;;14.10;90.20;;;;;;4996118;28;20026;-87
2021/08/25 01:22:59;;;;;;;1999.90;999.90;;;14.10;90.00;;;;;;4996539;28;20023;-87
2021/08/25 01:25:29;;;;;;;1999.90;999.90;;;14.10;89.00;;;;;;4996210;28;20117;-87
2021/08/25 01:28:02;;;;;;;1999.90;999.90;;;14.10;88.60;;;;;;4996880;28;20546;-89
2021/08/25 01:30:31;;;;;;;1999.90;999.90;;;14.10;88.30;;;;;;4995470;28;20037;-87
2021/08/25 01:33:01;;;;;;;1999.90;999.90;;;14.10;88.60;;;;;;4995451;28;20027;-88
2021/08/25 01:35:40;;;;;;;1999.90;999.90;;;14.10;88.90;;;;;;4995937;28;20105;-88
2021/08/25 01:38:06;;;;;;;1999.90;999.90;;;14.00;88.30;;;;;;4995732;28;20442;-87
2021/08/25 01:40:34;;;;;;;1999.90;999.90;;;14.00;88.60;;;;;;4995514;28;20014;-89
2021/08/25 01:43:00;;;;;;;1999.90;999.90;;;14.00;89.00;;;;;;4994868;28;20033;-87
2021/08/25 01:45:26;;;;;;;1999.90;999.90;;;14.00;89.10;;;;;;4995446;28;20030;-88
2021/08/25 01:47:52;;;;;;;1999.90;999.90;;;14.00;89.30;;;;;;4995410;28;20088;-88
2021/08/25 01:50:17;;;;;;;1999.90;999.90;;;14.00;90.20;;;;;;4995317;28;20117;-87
2021/08/25 01:52:43;;;;;;;1999.90;999.90;;;14.00;90.20;;;;;;4995158;28;20046;-85
2021/08/25 01:55:09;;;;;;;1999.90;999.90;;;14.00;90.40;;;;;;4995600;28;20181;-88
2021/08/25 01:57:35;;;;;;;1999.90;999.90;;;13.90;90.80;;;;;;4995905;28;20018;-87
2021/08/25 02:00:00;;;;;;;1999.90;999.90;;;13.90;91.30;;;;;;4995939;28;20026;-87
2021/08/25 02:02:26;;;;;;;1999.90;999.90;;;13.90;91.00;;;;;;4995866;28;20074;-86
2021/08/25 02:04:52;;;;;;;1999.90;999.90;;;13.90;90.80;;;;;;4995825;28;20030;-86
2021/08/25 02:07:17;;;;;;;1999.90;999.90;;;13.90;90.80;;;;;;4995641;28;20520;-87
2021/08/25 02:09:45;;;;;;;1999.90;999.90;;;13.90;90.40;;;;;;4996284;28;20022;-87
2021/08/25 02:12:10;;;;;;;1999.90;999.90;;;13.80;90.50;;;;;;4995575;28;20037;-87
2021/08/25 02:14:36;;;;;;;1999.90;999.90;;;13.90;90.60;;;;;;4996094;28;20034;-85
2021/08/25 02:17:03;;;;;;;1999.90;999.90;;;13.90;90.70;;;;;;4996033;28;20027;-86
2021/08/25 02:19:28;;;;;;;1999.90;999.90;;;13.80;90.70;;;;;;4997187;28;20030;-86
2021/08/25 02:21:54;;;;;;;1999.90;999.90;;;13.80;90.60;;;;;;4995780;28;20026;-87
2021/08/25 02:24:20;;;;;;;1999.90;999.90;;;13.80;90.70;;;;;;4996747;28;20022;-87
2021/08/25 02:26:45;;;;;;;1999.90;999.90;;;13.70;90.70;;;;;;4995561;28;20034;-86
2021/08/25 02:29:11;;;;;;;1999.90;999.90;;;13.70;91.00;;;;;;4995662;28;20026;-87
2021/08/25 02:31:37;;;;;;;1999.90;999.90;;;13.70;90.80;;;;;;4995513;28;20073;-87
2021/08/25 02:34:03;;;;;;;1999.90;999.90;;;13.70;91.10;;;;;;4994894;28;20033;-90
2021/08/25 02:36:28;;;;;;;1999.90;999.90;;;13.70;91.40;;;;;;4995017;28;20379;-87
2021/08/25 02:38:54;;;;;;;1999.90;999.90;;;13.70;91.80;;;;;;4995212;28;20030;-87
2021/08/25 02:41:20;;;;;;;1999.90;999.90;;;13.60;92.10;;;;;;4995135;28;20026;-87
2021/08/25 02:43:46;;;;;;;1999.90;999.90;;;13.60;92.50;;;;;;4995292;28;20057;-88
2021/08/25 02:46:13;;;;;;;1999.90;999.90;;;13.50;92.70;;;;;;4994585;28;20027;-88
2021/08/25 02:48:39;;;;;;;1999.90;999.90;;;13.50;93.10;;;;;;4995158;28;20022;-89
2021/08/25 02:51:05;;;;;;;1999.90;999.90;;;13.50;93.50;;;;;;4995251;28;20141;-88
2021/08/25 02:53:31;;;;;;;1999.90;999.90;;;13.50;93.50;;;;;;4996888;28;20082;-86
2021/08/25 02:55:56;;;;;;;1999.90;999.90;;;13.50;93.50;;;;;;4998779;28;20041;-88
2021/08/25 02:58:22;;;;;;;1999.90;999.90;;;13.50;93.50;;;;;;4999127;28;20029;-88
2021/08/25 03:00:48;;;;;;;1999.90;999.90;;;13.40;93.70;;;;;;4998601;28;20026;-88
2021/08/25 03:03:13;;;;;;;1999.90;999.90;;;13.50;93.90;;;;;;4999074;28;20049;-86
2021/08/25 03:05:39;;;;;;;1999.90;999.90;;;13.50;93.60;;;;;;4998562;28;20030;-89
2021/08/25 03:08:05;;;;;;;1999.90;999.90;;;13.50;93.80;;;;;;4998211;28;20029;-86
2021/08/25 03:10:30;;;;;;;1999.90;999.90;;;13.40;94.20;;;;;;4998502;28;20050;-88
2021/08/25 03:12:56;;;;;;;1999.90;999.90;;;13.40;94.50;;;;;;4998199;28;20026;-89
2021/08/25 03:15:22;;;;;;;1999.90;999.90;;;13.40;94.20;;;;;;4998268;28;20125;-89
2021/08/25 03:17:48;;;;;;;1999.90;999.90;;;13.40;94.20;;;;;;4998934;28;20022;-86
2021/08/25 03:20:13;;;;;;;1999.90;999.90;;;13.40;94.20;;;;;;4998692;28;20030;-88
2021/08/25 03:22:40;;;;;;;1999.90;999.90;;;13.40;94.10;;;;;;4998557;28;20034;-88
2021/08/25 03:25:09;;;;;;;1999.90;999.90;;;13.40;93.90;;;;;;4998082;28;20034;-88
2021/08/25 03:27:35;;;;;;;1999.90;999.90;;;13.40;94.00;;;;;;4997619;28;20018;-86
2021/08/25 03:30:01;;;;;;;1999.90;999.90;;;13.40;93.90;;;;;;4998444;28;20037;-88
2021/08/25 03:32:27;;;;;;;1999.90;999.90;;;13.40;94.40;;;;;;4998419;28;20034;-87
2021/08/25 03:34:53;;;;;;;1999.90;999.90;;;13.30;94.60;;;;;;4997668;28;20042;-87
2021/08/25 03:37:18;;;;;;;1999.90;999.90;;;13.30;95.10;;;;;;4998318;28;20080;-87
2021/08/25 03:39:45;;;;;;;1999.90;999.90;;;13.20;95.30;;;;;;4982986;28;20088;-87
2021/08/25 03:42:11;;;;;;;1999.90;999.90;;;13.20;95.30;;;;;;4999720;28;20023;-88
2021/08/25 03:44:37;;;;;;;1999.90;999.90;;;13.20;95.60;;;;;;4999672;28;20041;-88
2021/08/25 03:47:04;;;;;;;1999.90;999.90;;;13.10;95.60;;;;;;4999056;28;20049;-87
2021/08/25 03:49:31;;;;;;;1999.90;999.90;;;13.10;96.30;;;;;;5000118;28;20363;-87
2021/08/25 03:51:56;;;;;;;1999.90;999.90;;;13.10;96.00;;;;;;4999097;28;20085;-87
2021/08/25 03:54:22;;;;;;;1999.90;999.90;;;13.10;96.10;;;;;;4998116;28;20050;-88
2021/08/25 03:56:48;;;;;;;1999.90;999.90;;;13.10;96.30;;;;;;4999787;28;20473;-88
2021/08/25 03:59:14;;;;;;;1999.90;999.90;;;13.20;96.10;;;;;;4999073;28;20056;-87
2021/08/25 04:01:41;;;;;;;1999.90;999.90;;;13.10;95.60;;;;;;4998439;28;20367;-87
2021/08/25 04:04:08;;;;;;;1999.90;999.90;;;13.10;95.70;;;;;;4997581;28;20029;-88
2021/08/25 04:06:38;;;;;;;1999.90;999.90;;;13.10;96.00;;;;;;4998717;28;20027;-87
2021/08/25 04:09:04;;;;;;;1999.90;999.90;;;13.10;95.20;;;;;;4997972;28;20023;-88
2021/08/25 04:11:33;;;;;;;1999.90;999.90;;;13.20;95.10;;;;;;4997931;28;20046;-87
2021/08/25 04:14:00;;;;;;;1999.90;999.90;;;13.20;95.20;;;;;;4998892;28;20121;-89
2021/08/25 04:16:27;;;;;;;1999.90;999.90;;;13.20;94.90;;;;;;4987243;28;20034;-87
2021/08/25 04:18:53;;;;;;;1999.90;999.90;;;13.10;95.00;;;;;;4999011;28;20113;-88
2021/08/25 04:21:19;;;;;;;1999.90;999.90;;;13.20;94.30;;;;;;5003883;28;20050;-88
2021/08/25 04:23:45;;;;;;;1999.90;999.90;;;13.10;94.10;;;;;;5008589;28;20042;-90
2021/08/25 04:26:12;;;;;;;1999.90;999.90;;;14.60;99.90;;;;;;5011387;28;20079;-89
2021/08/25 04:28:38;;;;;;;1999.90;999.90;;;15.70;95.60;;;;;;5008379;28;20470;-88
2021/08/25 04:31:06;;;;;;;1999.90;999.90;;;15.80;88.70;;;;;;5008279;28;20042;-90
2021/08/25 04:33:33;;;;;;;1999.90;999.90;;;15.80;89.70;;;;;;5007232;28;20028;-88
2021/08/25 04:35:58;;;;;;;1999.90;999.90;;;15.90;85.90;;;;;;5010810;28;20034;-86
2021/08/25 04:38:25;;;;;;;1999.90;999.90;;;15.80;84.80;;;;;;5001691;28;20505;-89
2021/08/25 04:40:51;;;;;;;1999.90;999.90;;;16.00;86.60;;;;;;5002360;28;20030;-91
2021/08/25 04:43:17;;;;;;;1999.90;999.90;;;16.00;84.80;;;;;;5007272;28;20026;-86
2021/08/25 04:45:43;;;;;;;1999.90;999.90;;;15.60;82.60;;;;;;5003327;28;20085;-89
2021/08/25 04:48:08;;;;;;;1999.90;999.90;;;15.70;85.00;;;;;;4988745;28;20026;-89
2021/08/25 04:50:34;;;;;;;1999.90;999.90;;;15.70;84.30;;;;;;5002204;28;20026;-88
2021/08/25 04:53:00;;;;;;;1999.90;999.90;;;15.80;84.20;;;;;;5004419;28;20049;-89
2021/08/25 04:55:25;;;;;;;1999.90;999.90;;;15.60;84.30;;;;;;5001461;28;20049;-89
2021/08/25 04:57:51;;;;;;;1999.90;999.90;;;15.50;86.40;;;;;;4998072;28;20027;-89
2021/08/25 05:00:17;;;;;;;1999.90;999.90;;;15.40;87.40;;;;;;4998333;28;20026;-90
2021/08/25 05:02:43;;;;;;;1999.90;999.90;;;15.80;87.90;;;;;;4998428;28;20046;-89
2021/08/25 05:05:09;;;;;;;1999.90;999.90;;;16.10;86.80;;;;;;4997922;28;20022;-89
2021/08/25 05:07:35;;;;;;;1999.90;999.90;;;16.30;85.20;;;;;;4998178;28;20032;-90
2021/08/25 05:10:00;;;;;;;1999.90;999.90;;;16.30;86.10;;;;;;4996130;28;20026;-89
2021/08/25 05:12:26;;;;;;;1999.90;999.90;;;16.50;85.80;;;;;;4998682;28;20030;-89
2021/08/25 05:14:52;;;;;;;1999.90;999.90;;;16.40;85.40;;;;;;4999123;28;20041;-88
2021/08/25 05:17:17;;;;;;;1999.90;999.90;;;16.70;86.50;;;;;;4997313;28;20061;-89
2021/08/25 05:19:43;;;;;;;1999.90;999.90;;;16.50;85.80;;;;;;4998357;28;20030;-89
2021/08/25 05:22:10;;;;;;;1999.90;999.90;;;16.30;86.90;;;;;;4996675;28;20114;-89
2021/08/25 05:24:40;;;;;;;1999.90;999.90;;;16.50;86.70;;;;;;5006179;28;20026;-87
2021/08/25 05:27:05;;;;;;;1999.90;999.90;;;16.60;85.00;;;;;;5001403;28;20034;-89
2021/08/25 05:29:31;;;;;;;1999.90;999.90;;;15.90;84.30;;;;;;5001904;28;20089;-86
2021/08/25 05:31:57;;;;;;;1999.90;999.90;;;15.30;88.20;;;;;;4999429;28;20034;-90
2021/08/25 05:34:22;;;;;;;1999.90;999.90;;;14.80;90.70;;;;;;5000924;28;20034;-88
2021/08/25 05:36:48;;;;;;;1999.90;999.90;;;14.50;90.90;;;;;;5001791;28;20390;-89
2021/08/25 05:39:14;;;;;;;1999.90;999.90;;;14.30;91.50;;;;;;4989255;28;20018;-88
2021/08/25 05:41:40;;;;;;;1999.90;999.90;;;14.20;91.20;;;;;;4991393;28;20031;-89
2021/08/25 05:44:10;;;;;;;1999.90;999.90;;;14.10;91.50;;;;;;4990791;28;20134;-86
2021/08/25 05:46:35;;;;;;;1999.90;999.90;;;14.10;92.50;;;;;;5003617;28;20026;-87
2021/08/25 05:49:02;;;;;;;1999.90;999.90;;;14.10;91.80;;;;;;5005621;28;20085;-88
2021/08/25 05:51:28;;;;;;;1999.90;999.90;;;14.20;91.80;;;;;;4989231;28;20022;-88
2021/08/25 05:54:00;;;;;;;1999.90;999.90;;;14.20;90.80;;;;;;5005383;28;20053;-88
2021/08/25 05:56:27;;;;;;;1999.90;999.90;;;14.30;90.30;;;;;;5001587;28;20053;-87
2021/08/25 05:58:53;;;;;;;1999.90;999.90;;;14.40;90.00;;;;;;4998672;28;20081;-90
2021/08/25 06:01:20;;;;;;;1999.90;999.90;;;14.40;90.10;;;;;;5001822;28;20042;-87
2021/08/25 06:03:46;;;;;;;1999.90;999.90;;;14.50;88.70;;;;;;5003326;28;20036;-90
2021/08/25 06:06:12;;;;;;;1999.90;999.90;;;14.60;88.40;;;;;;5001889;28;20029;-87
2021/08/25 06:08:39;;;;;;;1999.90;999.90;;;14.60;88.10;;;;;;5002709;28;20045;-88
2021/08/25 06:11:05;;;;;;;1999.90;999.90;;;14.70;86.80;;;;;;5007355;28;20038;-87
2021/08/25 06:13:32;;;;;;;1999.90;999.90;;;14.90;87.60;;;;;;5003912;28;20038;-88
2021/08/25 06:15:58;;;;;;;1999.90;999.90;;;15.00;86.50;;;;;;4994174;28;20046;-78
2021/08/25 06:18:24;;;;;;;1999.90;999.90;;;15.10;85.30;;;;;;4991570;28;20026;-81
2021/08/25 06:20:51;;;;;;;1999.90;999.90;;;15.00;82.10;;;;;;4992055;28;20030;-81
2021/08/25 06:23:17;;;;;;;1999.90;999.90;;;15.10;81.60;;;;;;4993365;28;20022;-83
2021/08/25 06:25:42;;;;;;;1999.90;999.90;;;15.10;80.80;;;;;;4993672;28;20022;-85
2021/08/25 06:28:08;;;;;;;1999.90;999.90;;;15.20;80.30;;;;;;4996198;28;20052;-83
2021/08/25 06:30:34;;;;;;;1999.90;999.90;;;15.20;80.10;;;;;;4997459;28;20387;-86
2021/08/25 06:33:00;;;;;;;1999.90;999.90;;;15.70;83.30;;;;;;4997304;28;20034;-82
2021/08/25 06:35:25;;;;;;;1999.90;999.90;;;16.10;82.00;;;;;;4998467;28;20398;-85
2021/08/25 06:37:51;;;;;;;1999.90;999.90;;;16.50;81.20;;;;;;4998170;28;20386;-82
2021/08/25 06:40:33;;;;;;;;;;;;;;;;;;;;;
2021/08/25 06:42:59;;;;;;;1999.90;999.90;;;16.50;77.30;;;;;;5004528;28;20105;-88
2021/08/25 06:45:25;;;;;;;1999.90;999.90;;;16.60;76.10;;;;;;4999686;28;20116;-88
2021/08/25 06:47:51;;;;;;;1999.90;999.90;;;16.30;74.80;;;;;;5000096;28;20508;-87
2021/08/25 06:50:16;;;;;;;1999.90;999.90;;;16.20;75.50;;;;;;4997316;28;20493;-87
2021/08/25 06:52:42;;;;;;;1999.90;999.90;;;16.30;75.70;;;;;;4997060;28;20051;-87
2021/08/25 06:55:08;;;;;;;1999.90;999.90;;;16.50;76.00;;;;;;4997070;28;20038;-85
2021/08/25 06:57:34;;;;;;;1999.90;999.90;;;16.60;75.20;;;;;;4997353;28;20022;-86
2021/08/25 06:59:59;;;;;;;1999.90;999.90;;;16.50;74.60;;;;;;4996768;28;20027;-90
2021/08/25 07:02:25;;;;;;;1999.90;999.90;;;16.60;74.60;;;;;;4996818;28;20022;-88
2021/08/25 07:04:51;;;;;;;1999.90;999.90;;;16.60;74.50;;;;;;4997754;28;20045;-87
2021/08/25 07:07:16;;;;;;;1999.90;999.90;;;16.70;74.40;;;;;;4998891;28;20466;-87
2021/08/25 07:09:42;;;;;;;1999.90;999.90;;;16.80;73.60;;;;;;4999021;28;20896;-89
2021/08/25 07:12:08;;;;;;;1999.90;999.90;;;16.90;74.30;;;;;;4999579;28;20021;-87
2021/08/25 07:14:34;;;;;;;1999.90;999.90;;;17.00;73.10;;;;;;4995922;28;20053;-85
2021/08/25 07:16:59;;;;;;;1999.90;999.90;;;17.10;73.10;;;;;;4996949;28;20026;-90
2021/08/25 07:19:25;;;;;;;1999.90;999.90;;;17.20;73.30;;;;;;4996730;28;20045;-83
2021/08/25 07:21:50;;;;;;;1999.90;999.90;;;17.30;73.70;;;;;;4996476;28;20027;-85
2021/08/25 07:24:16;;;;;;;1999.90;999.90;;;17.40;72.50;;;;;;4996421;28;20041;-87
2021/08/25 07:26:42;;;;;;;1999.90;999.90;;;17.40;72.10;;;;;;4996558;28;20182;-87
2021/08/25 07:29:08;;;;;;;1999.90;999.90;;;17.30;71.60;;;;;;4996241;28;20029;-88
2021/08/25 07:31:33;;;;;;;1999.90;999.90;;;17.40;72.10;;;;;;4997025;28;20035;-84
2021/08/25 07:33:59;;;;;;;1999.90;999.90;;;17.40;71.90;;;;;;4996209;28;20026;-85
2021/08/25 07:36:25;;;;;;;1999.90;999.90;;;17.50;72.10;;;;;;4995789;28;20038;-81
2021/08/25 07:38:51;;;;;;;1999.90;999.90;;;17.50;71.60;;;;;;4994902;28;20027;-81
2021/08/25 07:41:17;;;;;;;1999.90;999.90;;;17.50;72.60;;;;;;4995775;28;20145;-87
2021/08/25 07:43:43;;;;;;;1999.90;999.90;;;17.30;70.50;;;;;;4995579;28;20035;-84
2021/08/25 07:46:09;;;;;;;1999.90;999.90;;;17.30;70.10;;;;;;4994081;28;20371;-85
2021/08/25 07:48:35;;;;;;;1999.90;999.90;;;17.10;69.30;;;;;;4994694;28;20089;-84
2021/08/25 07:51:03;;;;;;;1999.90;999.90;;;16.90;69.70;;;;;;4994851;28;20037;-83
2021/08/25 07:53:29;;;;;;;1999.90;999.90;;;16.90;70.50;;;;;;4994278;28;20050;-85
2021/08/25 07:55:54;;;;;;;1999.90;999.90;;;17.00;71.70;;;;;;4994418;28;20042;-84
2021/08/25 07:58:20;;;;;;;1999.90;999.90;;;17.00;72.60;;;;;;4994448;28;20088;-85
2021/08/25 08:00:46;;;;;;;1999.90;999.90;;;17.10;73.00;;;;;;4994254;28;20062;-85
2021/08/25 08:03:11;;;;;;;1999.90;999.90;;;17.20;72.80;;;;;;4994323;28;20023;-85
2021/08/25 08:05:37;;;;;;;1999.90;999.90;;;17.30;72.80;;;;;;4994384;28;20048;-84
2021/08/25 08:08:03;;;;;;;1999.90;999.90;;;17.50;72.80;;;;;;4994303;28;20470;-83
2021/08/25 08:10:29;;;;;;;1999.90;999.90;;;17.50;70.90;;;;;;4993982;28;20104;-84
2021/08/25 08:12:54;;;;;;;1999.90;999.90;;;17.50;71.00;;;;;;4994169;28;20046;-83
2021/08/25 08:15:20;;;;;;;1999.90;999.90;;;17.60;71.40;;;;;;4993954;28;20440;-81
2021/08/25 08:17:46;;;;;;;1999.90;999.90;;;17.60;71.30;;;;;;4994446;28;20527;-84
2021/08/25 08:20:16;;;;;;;1999.90;999.90;;;17.60;70.70;;;;;;4993774;28;20022;-85
2021/08/25 08:22:42;;;;;;;1999.90;999.90;;;17.40;70.00;;;;;;4993886;28;20030;-83
2021/08/25 08:25:08;;;;;;;1999.90;999.90;;;17.60;71.70;;;;;;4993775;28;20018;-83
2021/08/25 08:27:34;;;;;;;1999.90;999.90;;;17.60;71.40;;;;;;4993911;28;20026;-87
2021/08/25 08:30:01;;;;;;;1999.90;999.90;;;17.50;70.90;;;;;;4993590;28;20113;-86
2021/08/25 08:32:27;;;;;;;1999.90;999.90;;;17.70;71.40;;;;;;4993905;28;20398;-87
2021/08/25 08:34:52;;;;;;;1999.90;999.90;;;17.80;70.50;;;;;;4993560;28;20038;-84
2021/08/25 08:37:18;;;;;;;1999.90;999.90;;;17.80;69.60;;;;;;4993510;28;20037;-85
2021/08/25 08:39:44;;;;;;;1999.90;999.90;;;17.80;69.80;;;;;;4993714;28;20034;-83
2021/08/25 08:42:27;;;;;;;1999.90;999.90;;;17.80;69.70;;;;;;4993521;28;20492;-85
2021/08/25 08:44:53;;;;;;;1999.90;999.90;;;17.80;70.20;;;;;;4993475;28;20070;-83
2021/08/25 08:47:22;;;;;;;1999.90;999.90;;;17.90;70.10;;;;;;4993547;28;20026;-85
2021/08/25 08:49:49;;;;;;;1999.90;999.90;;;18.10;70.50;;;;;;4993252;28;20097;-85
2021/08/25 08:52:15;;;;;;;1999.90;999.90;;;18.00;69.30;;;;;;4992797;28;20034;-85
2021/08/25 08:54:41;;;;;;;1999.90;999.90;;;18.00;69.90;;;;;;4993072;28;20394;-87
2021/08/25 08:57:06;;;;;;;1999.90;999.90;;;17.90;69.30;;;;;;4993287;28;20026;-84
2021/08/25 08:59:32;;;;;;;1999.90;999.90;;;17.90;69.00;;;;;;4993202;28;20081;-84
2021/08/25 09:01:58;;;;;;;1999.90;999.90;;;18.00;69.80;;;;;;4993020;28;20022;-83
2021/08/25 09:04:31;;;;;;;1999.90;999.90;;;18.10;69.60;;;;;;4993130;28;20030;-85
2021/08/25 09:06:57;;;;;;;1999.90;999.90;;;18.30;69.80;;;;;;4992817;28;20022;-83
2021/08/25 09:09:23;;;;;;;1999.90;999.90;;;18.60;69.90;;;;;;4992609;28;20026;-84
2021/08/25 09:11:54;;;;;;;1999.90;999.90;;;18.60;68.40;;;;;;4993122;28;20504;-85
2021/08/25 09:14:23;;;;;;;1999.90;999.90;;;18.80;68.40;;;;;;4992968;28;20080;-82
2021/08/25 09:16:49;;;;;;;1999.90;999.90;;;18.90;67.70;;;;;;4993106;28;20474;-83
2021/08/25 09:19:17;;;;;;;1999.90;999.90;;;18.80;67.30;;;;;;4992994;28;20034;-83
2021/08/25 09:21:46;;;;;;;1999.90;999.90;;;18.80;66.20;;;;;;4992998;28;20084;-84
2021/08/25 09:24:13;;;;;;;1999.90;999.90;;;18.50;65.90;;;;;;4993905;28;20113;-84
2021/08/25 09:27:05;;;;;;;1999.90;999.90;;;18.60;66.60;;;;;;4992739;28;20101;-85
2021/08/25 09:29:30;;;;;;;1999.90;999.90;;;18.60;65.30;;;;;;4984958;28;20426;-83
2021/08/25 09:31:56;;;;;;;1999.90;999.90;;;18.60;67.20;;;;;;4992805;28;20119;-85
2021/08/25 09:34:29;;;;;;;1999.90;999.90;;;18.90;67.50;;;;;;4992533;28;20489;-84
2021/08/25 09:37:05;;;;;;;1999.90;999.90;;;19.00;67.60;;;;;;4993799;28;20034;-85
2021/08/25 09:39:31;;;;;;;1999.90;999.90;;;19.00;66.30;;;;;;4992599;28;20157;-82
2021/08/25 09:41:57;;;;;;;1999.90;999.90;;;19.10;65.70;;;;;;4992322;28;20496;-85
2021/08/25 09:44:23;;;;;;;1999.90;999.90;;;19.20;67.20;;;;;;4992486;28;20032;-86
2021/08/25 09:46:51;;;;;;;1999.90;999.90;;;19.30;66.20;;;;;;4992532;28;20026;-84
2021/08/25 09:49:17;;;;;;;1999.90;999.90;;;19.10;64.60;;;;;;4992511;28;20022;-87
2021/08/25 09:51:43;;;;;;;1999.90;999.90;;;19.00;65.40;;;;;;4992544;28;20382;-85
2021/08/25 09:54:11;;;;;;;1999.90;999.90;;;19.00;66.10;;;;;;4992165;28;20081;-83
2021/08/25 09:56:39;;;;;;;1999.90;999.90;;;19.30;67.20;;;;;;4992244;28;20072;-84
2021/08/25 09:59:07;;;;;;;1999.90;999.90;;;19.10;65.80;;;;;;4993461;28;20462;-82
2021/08/25 10:01:33;;;;;;;1999.90;999.90;;;19.00;64.40;;;;;;4992144;28;20034;-82
2021/08/25 10:03:59;;;;;;;1999.90;999.90;;;19.00;64.60;;;;;;4991806;28;20534;-85
2021/08/25 10:06:26;;;;;;;1999.90;999.90;;;19.10;65.30;;;;;;4992287;28;20105;-87
2021/08/25 10:08:52;;;;;;;1999.90;999.90;;;19.20;66.60;;;;;;4992229;28;20033;-83
2021/08/25 10:11:30;;;;;;;1999.90;999.90;;;19.20;66.00;;;;;;4992313;28;20061;-85
2021/08/25 10:13:57;;;;;;;1999.90;999.90;;;19.50;66.70;;;;;;4991989;28;20378;-81
2021/08/25 10:16:39;;;;;;;1999.90;999.90;;;19.60;68.30;;;;;;4992624;28;20537;-84
2021/08/25 10:19:24;;;;;;;1999.90;999.90;;;20.20;68.50;;;;;;4993221;28;20028;-82
2021/08/25 10:21:51;;;;;;;1999.90;999.90;;;20.40;66.00;;;;;;4993255;28;20066;-82
2021/08/25 10:24:16;;;;;;;1999.90;999.90;;;20.40;64.40;;;;;;4994365;28;20035;-84
2021/08/25 10:26:57;;;;;;;1999.90;999.90;;;20.10;62.70;;;;;;4993087;28;20028;-84
2021/08/25 10:29:24;;;;;;;1999.90;999.90;;;20.00;61.90;;;;;;4992920;28;20033;-82
2021/08/25 10:31:49;;;;;;;1999.90;999.90;;;19.80;62.30;;;;;;4993061;28;20022;-82
2021/08/25 10:34:25;;;;;;;1999.90;999.90;;;19.80;62.30;;;;;;4993160;28;20501;-82
2021/08/25 10:36:52;;;;;;;1999.90;999.90;;;19.90;62.40;;;;;;4994338;28;20026;-85
2021/08/25 10:39:35;;;;;;;1999.90;999.90;;;19.90;61.80;;;;;;4992838;28;20081;-84
2021/08/25 10:42:02;;;;;;;1999.90;999.90;;;20.50;64.30;;;;;;4992913;28;20030;-82
2021/08/25 10:44:37;;;;;;;1999.90;999.90;;;20.90;65.30;;;;;;4993074;28;20466;-82
2021/08/25 10:47:07;;;;;;;1999.90;999.90;;;21.10;63.00;;;;;;4992719;28;20058;-81
2021/08/25 10:49:34;;;;;;;1999.90;999.90;;;21.20;62.40;;;;;;4993036;28;20023;-84
2021/08/25 10:52:15;;;;;;;1999.90;999.90;;;21.40;63.00;;;;;;4992774;28;20058;-81
2021/08/25 10:54:42;;;;;;;1999.90;999.90;;;21.60;63.20;;;;;;4992689;28;20398;-83
2021/08/25 10:57:10;;;;;;;1999.90;999.90;;;21.70;62.90;;;;;;4992651;28;20054;-85
2021/08/25 10:59:36;;;;;;;1999.90;999.90;;;21.80;62.90;;;;;;4992548;28;20073;-85
2021/08/25 11:02:02;;;;;;;1999.90;999.90;;;21.80;61.70;;;;;;4992658;28;20022;-85
2021/08/25 11:04:28;;;;;;;1999.90;999.90;;;21.70;61.00;;;;;;4992873;28;20030;-84
2021/08/25 11:06:58;;;;;;;1999.90;999.90;;;21.90;61.20;;;;;;4992649;28;20022;-85
2021/08/25 11:09:29;;;;;;;1999.90;999.90;;;21.90;60.60;;;;;;4992837;28;20023;-79
2021/08/25 11:11:58;;;;;;;1999.90;999.90;;;21.90;60.10;;;;;;4992768;28;20029;-88
2021/08/25 11:14:27;;;;;;;1999.90;999.90;;;21.80;60.80;;;;;;4994517;28;20391;-86
2021/08/25 11:16:54;;;;;;;1999.90;999.90;;;21.50;61.10;;;;;;4996212;28;20117;-83
2021/08/25 11:19:31;;;;;;;1999.90;999.90;;;21.40;61.80;;;;;;4996347;28;20019;-82
2021/08/25 11:21:59;;;;;;;1999.90;999.90;;;21.40;62.50;;;;;;4996292;28;20026;-83
2021/08/25 11:24:38;;;;;;;1999.90;999.90;;;21.30;61.90;;;;;;4996059;28;20105;-85
2021/08/25 11:27:16;;;;;;;1999.90;999.90;;;21.20;62.50;;;;;;4996990;28;20396;-83
2021/08/25 11:29:41;;;;;;;1999.90;999.90;;;21.10;63.40;;;;;;4996489;28;20031;-81
2021/08/25 11:32:07;;;;;;;1999.90;999.90;;;21.10;63.40;;;;;;4997108;28;20026;-85
2021/08/25 11:34:33;;;;;;;1999.90;999.90;;;20.80;62.70;;;;;;4996156;28;20026;-85
2021/08/25 11:37:03;;;;;;;1999.90;999.90;;;20.70;63.10;;;;;;4996037;28;20027;-85
2021/08/25 11:39:30;;;;;;;1999.90;999.90;;;20.70;64.50;;;;;;4996339;28;20022;-84
2021/08/25 11:41:57;;;;;;;1999.90;999.90;;;20.80;64.50;;;;;;4996197;28;20030;-83
2021/08/25 11:44:37;;;;;;;1999.90;999.90;;;20.50;64.20;;;;;;4996125;28;20027;-83
2021/08/25 11:47:17;;;;;;;1999.90;999.90;;;20.50;64.80;;;;;;4995712;28;20117;-81
2021/08/25 11:49:44;;;;;;;1999.90;999.90;;;20.80;64.80;;;;;;4995716;28;20050;-81
2021/08/25 11:52:11;;;;;;;1999.90;999.90;;;20.90;64.50;;;;;;4995238;28;20533;-85
2021/08/25 11:54:39;;;;;;;1999.90;999.90;;;20.90;63.60;;;;;;4995274;28;20034;-85
2021/08/25 11:57:08;;;;;;;1999.90;999.90;;;21.00;63.90;;;;;;4995431;28;20029;-83
2021/08/25 11:59:34;;;;;;;1999.90;999.90;;;21.10;64.30;;;;;;4995763;28;20028;-79
2021/08/25 12:02:05;;;;;;;1999.90;999.90;;;21.40;64.80;;;;;;4995137;28;20050;-84